createdAt,value
2023-03-07T00:04:15.668Z,2.42
2023-03-07T00:09:18.141Z,2.70
2023-03-07T00:14:20.739Z,3.35
2023-03-07T00:19:23.240Z,2.17
2023-03-07T00:24:25.762Z,2.92
2023-03-07T00:29:28.497Z,2.08
2023-03-07T00:34:31.051Z,1.77
2023-03-07T00:44:36.468Z,1.83
2023-03-07T00:49:39.024Z,2.10
2023-03-07T00:54:41.680Z,2.22
2023-03-07T00:59:44.690Z,2.58
2023-03-07T01:04:47.435Z,2.22
2023-03-07T01:09:51.760Z,2.22
2023-03-07T01:14:54.443Z,1.98
2023-03-07T01:19:57.138Z,1.63
2023-03-07T01:24:59.980Z,1.65
2023-03-07T01:30:02.624Z,2.70
2023-03-07T01:35:06.704Z,2.88
2023-03-07T01:40:10.379Z,2.90
2023-03-07T01:45:12.866Z,2.88
2023-03-07T01:50:21.514Z,3.65
2023-03-07T01:55:42.812Z,2.45
2023-03-07T02:00:50.272Z,2.92
2023-03-07T02:06:10.102Z,2.90
2023-03-07T02:11:12.866Z,2.28
2023-03-07T02:16:15.782Z,2.60
2023-03-07T02:21:49.178Z,2.70
2023-03-07T02:26:53.461Z,1.83
2023-03-07T02:31:56.155Z,1.95
2023-03-07T02:37:07.367Z,2.33
2023-03-07T02:42:27.114Z,3.38
2023-03-07T02:47:39.446Z,3.00
2023-03-07T02:52:42.598Z,2.95
2023-03-07T02:57:45.432Z,2.33
2023-03-07T03:02:48.085Z,2.38
2023-03-07T03:07:50.896Z,3.38
2023-03-07T03:12:53.600Z,2.65
2023-03-07T03:17:56.235Z,2.85
2023-03-07T03:23:00.209Z,2.60
2023-03-07T03:28:02.910Z,2.42
2023-03-07T03:33:07.441Z,2.83
2023-03-07T03:38:10.830Z,1.92
2023-03-07T03:43:13.647Z,2.53
2023-03-07T03:48:16.448Z,2.55
2023-03-07T03:53:19.250Z,3.17
2023-03-07T03:58:22.013Z,1.52
2023-03-07T04:03:24.703Z,1.70
2023-03-07T04:08:27.317Z,2.38
2023-03-07T04:13:29.960Z,2.10
2023-03-07T04:18:32.651Z,1.95
2023-03-07T04:23:35.320Z,3.05
2023-03-07T04:28:44.486Z,2.15
2023-03-07T04:33:55.934Z,2.13
2023-03-07T04:38:59.293Z,2.33
2023-03-07T04:44:02.419Z,1.70
2023-03-07T04:49:05.567Z,2.53
2023-03-07T04:54:08.571Z,2.08
2023-03-07T04:59:11.521Z,2.53
2023-03-07T05:04:14.304Z,2.28
2023-03-07T05:09:17.024Z,1.98
2023-03-07T05:14:20.186Z,2.45
2023-03-07T05:19:22.795Z,2.05
2023-03-07T05:24:26.524Z,2.95
2023-03-07T05:29:29.775Z,2.30
2023-03-07T05:34:32.397Z,2.70
2023-03-07T05:39:35.253Z,2.45
2023-03-07T05:44:38.112Z,3.28
2023-03-07T05:49:41.461Z,3.75
2023-03-07T05:54:44.936Z,4.00
2023-03-07T05:59:48.669Z,5.25
2023-03-07T06:04:51.452Z,5.43
2023-03-07T06:09:54.161Z,4.68
2023-03-07T06:14:56.836Z,4.35
2023-03-07T06:19:59.905Z,4.60
2023-03-07T06:25:02.575Z,5.32
2023-03-07T06:30:07.418Z,5.43
2023-03-07T06:35:10.786Z,4.07
2023-03-07T06:40:13.644Z,5.00
2023-03-07T06:45:16.483Z,4.50
2023-03-07T06:50:26.515Z,6.00
2023-03-07T06:55:36.713Z,4.88
2023-03-07T07:00:39.341Z,5.55
2023-03-07T07:05:42.059Z,5.10
2023-03-07T07:10:44.953Z,5.40
2023-03-07T07:15:47.560Z,5.53
2023-03-07T07:20:56.949Z,5.85
2023-03-07T07:26:01.966Z,6.82
2023-03-07T07:31:04.776Z,5.50
2023-03-07T07:36:09.274Z,6.50
2023-03-07T07:41:12.686Z,5.70
2023-03-07T07:46:15.503Z,5.15
2023-03-07T07:51:19.081Z,5.03
2023-03-07T07:56:22.112Z,4.40
2023-03-07T08:01:26.030Z,4.63
2023-03-07T08:06:29.360Z,5.85
2023-03-07T08:11:32.237Z,4.95
2023-03-07T08:16:34.758Z,5.95
2023-03-07T08:21:37.329Z,5.50
2023-03-07T08:26:41.481Z,6.00
2023-03-07T08:31:46.054Z,5.35
2023-03-07T08:36:48.605Z,5.88
2023-03-07T08:41:51.165Z,5.95
2023-03-07T08:46:54.241Z,5.15
2023-03-07T08:51:56.803Z,5.93
2023-03-07T08:57:01.844Z,5.68
2023-03-07T09:02:04.472Z,7.60
2023-03-07T09:07:07.204Z,5.28
2023-03-07T09:12:10.038Z,6.13
2023-03-07T09:17:12.661Z,5.00
2023-03-07T09:22:15.202Z,4.05
2023-03-07T09:27:17.752Z,5.15
2023-03-07T09:32:20.431Z,4.18
2023-03-07T09:37:23.042Z,5.13
2023-03-07T09:42:34.612Z,4.38
2023-03-07T09:47:55.275Z,4.82
2023-03-07T09:53:03.434Z,5.47
2023-03-07T09:58:16.146Z,4.43
2023-03-07T10:03:41.788Z,5.50
2023-03-07T10:08:44.572Z,4.68
2023-03-07T10:14:06.108Z,3.72
2023-03-07T10:19:17.561Z,4.40
2023-03-07T10:24:33.932Z,3.80
2023-03-07T10:36:34.702Z,3.10
2023-03-07T10:41:37.437Z,3.95
2023-03-07T10:46:50.083Z,2.72
2023-03-07T10:52:07.269Z,2.80
2023-03-07T10:57:13.424Z,2.40
2023-03-07T11:02:36.338Z,2.35
2023-03-07T11:07:39.775Z,2.72
2023-03-07T11:12:46.595Z,4.57
2023-03-07T11:17:50.412Z,2.83
2023-03-07T11:23:26.227Z,5.10
2023-03-07T11:28:33.712Z,3.70
2023-03-07T11:33:58.616Z,4.75
2023-03-07T11:39:14.266Z,4.45
2023-03-07T11:45:04.343Z,4.97
2023-03-07T11:50:21.596Z,4.28
2023-03-07T11:55:36.254Z,2.85
2023-03-07T12:00:57.242Z,5.05
2023-03-07T12:06:11.007Z,5.20
2023-03-07T12:11:40.699Z,3.15
2023-03-07T12:17:25.113Z,5.07
2023-03-07T12:22:46.670Z,3.92
2023-03-07T12:28:05.790Z,5.75
2023-03-07T12:33:34.555Z,5.63
2023-03-07T12:38:44.146Z,4.28
2023-03-07T12:43:59.084Z,5.60
2023-03-07T12:49:17.881Z,5.05
2023-03-07T12:54:23.442Z,5.95
2023-03-07T12:59:29.455Z,5.00
2023-03-07T13:04:37.082Z,3.15
2023-03-07T13:09:44.614Z,5.20
2023-03-07T13:15:34.235Z,4.03
2023-03-07T13:20:41.278Z,4.68
2023-03-07T13:25:51.949Z,5.25
2023-03-07T13:31:31.638Z,4.30
2023-03-07T13:36:39.223Z,5.07
2023-03-07T13:41:51.467Z,4.82
2023-03-07T13:46:56.021Z,4.10
2023-03-07T13:52:18.163Z,4.68
2023-03-07T13:57:25.984Z,4.50
2023-03-07T14:02:30.056Z,5.50
2023-03-07T14:07:41.460Z,4.53
2023-03-07T14:12:45.350Z,4.78
2023-03-07T14:18:26.400Z,5.68
2023-03-07T14:23:56.518Z,6.32
2023-03-07T14:29:03.448Z,5.03
2023-03-07T14:34:26.822Z,5.65
2023-03-07T14:39:55.896Z,4.05
2023-03-07T14:45:10.239Z,5.30
2023-03-07T14:50:20.514Z,6.45
2023-03-07T14:55:25.474Z,6.20
2023-03-07T15:00:30.025Z,5.50
2023-03-07T15:05:35.967Z,4.55
2023-03-07T15:10:41.744Z,5.68
2023-03-07T15:15:49.458Z,5.43
2023-03-07T15:20:55.516Z,5.15
2023-03-07T15:26:06.107Z,4.75
2023-03-07T15:31:10.581Z,5.65
2023-03-07T15:36:13.420Z,3.53
2023-03-07T15:41:25.406Z,4.75
2023-03-07T15:46:28.839Z,4.50
2023-03-07T15:51:38.540Z,5.22
2023-03-07T15:56:43.969Z,3.42
2023-03-07T16:01:46.607Z,3.47
2023-03-07T16:06:49.550Z,5.18
2023-03-07T16:11:53.072Z,4.40
2023-03-07T16:16:57.899Z,3.88
2023-03-07T16:22:01.219Z,3.83
2023-03-07T16:27:03.933Z,3.22
2023-03-07T16:32:15.726Z,3.70
2023-03-07T16:37:21.030Z,3.10
2023-03-07T16:42:23.960Z,2.80
2023-03-07T16:47:26.550Z,3.45
2023-03-07T16:52:30.226Z,4.78
2023-03-07T16:57:34.742Z,3.15
2023-03-07T17:02:37.416Z,4.05
2023-03-07T17:07:41.746Z,3.15
2023-03-07T17:12:44.614Z,3.45
2023-03-07T17:17:49.162Z,2.38
2023-03-07T17:22:53.836Z,3.05
2023-03-07T17:28:09.117Z,3.35
2023-03-07T17:33:12.500Z,3.30
2023-03-07T17:38:15.848Z,5.82
2023-03-07T17:43:19.812Z,3.90
2023-03-07T17:48:22.369Z,2.70
2023-03-07T17:53:25.034Z,5.22
2023-03-07T17:58:27.542Z,4.97
2023-03-07T18:03:30.133Z,4.10
2023-03-07T18:08:33.456Z,3.65
2023-03-07T18:13:38.862Z,4.85
2023-03-07T18:24:01.732Z,1.85
2023-03-07T18:29:05.087Z,3.58
2023-03-07T18:34:07.701Z,4.30
2023-03-07T18:39:11.625Z,5.05
2023-03-07T18:44:14.519Z,4.72
2023-03-07T18:49:17.285Z,4.97
2023-03-07T18:54:19.792Z,3.63
2023-03-07T18:59:22.410Z,5.57
2023-03-07T19:04:25.060Z,3.33
2023-03-07T19:09:28.046Z,5.00
2023-03-07T19:14:33.382Z,3.25
2023-03-07T19:19:36.440Z,4.38
2023-03-07T19:24:39.193Z,3.72
2023-03-07T19:29:41.756Z,3.95
2023-03-07T19:34:44.420Z,3.17
2023-03-07T19:39:46.977Z,4.03
2023-03-07T19:44:50.181Z,5.75
2023-03-07T19:49:52.723Z,5.13
2023-03-07T19:54:55.253Z,5.03
2023-03-07T19:59:58.068Z,4.78
2023-03-07T20:05:01.074Z,3.88
2023-03-07T20:10:03.978Z,6.25
2023-03-07T20:15:07.165Z,4.95
2023-03-07T20:20:10.616Z,5.70
2023-03-07T20:25:13.182Z,7.50
2023-03-07T20:30:16.350Z,6.97
2023-03-07T20:35:19.559Z,6.43
2023-03-07T20:40:22.110Z,6.40
2023-03-07T20:45:24.574Z,4.43
2023-03-07T20:50:27.063Z,4.55
2023-03-07T20:55:31.026Z,4.53
2023-03-07T21:00:33.553Z,5.90
2023-03-07T21:05:36.570Z,6.13
2023-03-07T21:10:39.103Z,6.03
2023-03-07T21:15:42.209Z,4.35
2023-03-07T21:20:44.781Z,5.45
2023-03-07T21:25:47.518Z,5.05
2023-03-07T21:30:50.019Z,4.50
2023-03-07T21:35:53.840Z,5.50
2023-03-07T21:40:56.671Z,4.90
2023-03-07T21:46:03.192Z,4.30
2023-03-07T21:51:06.524Z,4.78
2023-03-07T21:56:11.617Z,4.28
2023-03-07T22:01:23.892Z,3.53
2023-03-07T22:06:27.578Z,3.58
2023-03-07T22:11:30.266Z,3.70
2023-03-07T22:16:33.813Z,3.63
2023-03-07T22:21:36.472Z,3.90
2023-03-07T22:26:39.087Z,5.43
2023-03-07T22:31:41.583Z,6.55
2023-03-07T22:36:44.712Z,5.80
2023-03-07T22:41:47.123Z,5.43
2023-03-07T22:46:52.508Z,6.03
2023-03-07T22:51:55.254Z,5.47
2023-03-07T22:56:57.764Z,6.22
2023-03-07T23:02:00.269Z,5.85
2023-03-07T23:07:02.794Z,6.15
2023-03-07T23:12:05.713Z,6.10
2023-03-07T23:17:08.260Z,4.60
2023-03-07T23:22:10.812Z,5.82
2023-03-07T23:27:13.334Z,3.08
2023-03-07T23:32:15.911Z,4.45
2023-03-07T23:37:18.403Z,4.80
2023-03-07T23:42:21.040Z,8.02
2023-03-07T23:47:25.009Z,5.85
2023-03-07T23:52:27.610Z,6.75
2023-03-07T23:57:30.190Z,4.28
